createdAt,value
2019-03-31T00:00:04.024Z,37
2019-03-31T00:01:08.876Z,37
2019-03-31T00:02:01.954Z,33
2019-03-31T00:03:02.151Z,38
2019-03-31T00:04:02.439Z,37
2019-03-31T00:05:02.348Z,38
2019-03-31T00:06:06.084Z,37
2019-03-31T00:07:01.733Z,35
2019-03-31T00:08:01.958Z,43
2019-03-31T00:09:02.229Z,40
2019-03-31T00:10:02.511Z,41
2019-03-31T00:11:01.776Z,39
2019-03-31T00:12:01.963Z,37
2019-03-31T00:13:02.256Z,37
2019-03-31T00:14:02.536Z,32
2019-03-31T00:15:01.733Z,42
2019-03-31T00:16:01.941Z,38
2019-03-31T00:17:02.219Z,35
2019-03-31T00:18:02.422Z,39
2019-03-31T00:19:01.670Z,37
2019-03-31T00:20:01.815Z,40
2019-03-31T00:21:02.024Z,32
2019-03-31T00:22:02.320Z,39
2019-03-31T00:23:02.499Z,34
2019-03-31T00:24:01.860Z,37
2019-03-31T00:25:02.104Z,34
2019-03-31T00:26:02.318Z,39
2019-03-31T00:27:02.518Z,35
2019-03-31T00:28:01.706Z,38
2019-03-31T00:29:02.020Z,36
2019-03-31T00:30:01.875Z,30
2019-03-31T00:31:01.774Z,37
2019-03-31T00:32:02.059Z,35
2019-03-31T00:33:02.249Z,37
2019-03-31T00:34:02.528Z,38
2019-03-31T00:35:01.684Z,37
2019-03-31T00:36:01.900Z,35
2019-03-31T00:37:02.085Z,40
2019-03-31T00:38:02.279Z,38
2019-03-31T00:39:02.528Z,33
2019-03-31T00:40:01.743Z,37
2019-03-31T00:41:01.908Z,32
2019-03-31T00:42:02.063Z,31
2019-03-31T00:43:02.288Z,37
2019-03-31T00:44:02.601Z,40
2019-03-31T00:45:01.740Z,39
2019-03-31T00:46:02.017Z,32
2019-03-31T00:47:02.810Z,39
2019-03-31T00:48:01.699Z,38
2019-03-31T00:49:01.928Z,36
2019-03-31T00:50:02.214Z,36
2019-03-31T00:51:02.499Z,37
2019-03-31T00:52:01.667Z,38
2019-03-31T00:53:01.945Z,38
2019-03-31T00:54:02.278Z,35
2019-03-31T00:55:02.451Z,39
2019-03-31T00:56:01.710Z,35
2019-03-31T00:57:02.004Z,35
2019-03-31T00:58:02.185Z,32
2019-03-31T00:59:02.452Z,33
2019-03-31T01:00:06.337Z,36
2019-03-31T01:01:02.219Z,35
2019-03-31T01:02:02.512Z,38
2019-03-31T01:03:01.653Z,37
2019-03-31T01:04:01.911Z,37
2019-03-31T01:05:02.130Z,33
2019-03-31T01:06:02.323Z,36
2019-03-31T01:07:02.617Z,37
2019-03-31T01:08:01.720Z,39
2019-03-31T01:09:01.954Z,33
2019-03-31T01:10:02.256Z,32
2019-03-31T01:11:02.460Z,36
2019-03-31T01:12:01.808Z,35
2019-03-31T01:13:01.932Z,33
2019-03-31T01:14:02.194Z,29
2019-03-31T01:15:02.583Z,38
2019-03-31T01:16:01.801Z,34
2019-03-31T01:17:01.987Z,32
2019-03-31T01:18:02.304Z,32
2019-03-31T01:19:02.513Z,35
2019-03-31T01:20:01.703Z,35
2019-03-31T01:21:01.877Z,32
2019-03-31T01:22:02.137Z,32
2019-03-31T01:23:01.903Z,30
2019-03-31T01:24:02.149Z,33
2019-03-31T01:25:02.367Z,35
2019-03-31T01:26:01.620Z,33
2019-03-31T01:27:01.840Z,37
2019-03-31T01:28:02.076Z,34
2019-03-31T01:29:02.380Z,28
2019-03-31T01:30:02.558Z,33
2019-03-31T01:31:01.773Z,35
2019-03-31T01:32:02.019Z,34
2019-03-31T01:33:02.367Z,30
2019-03-31T01:34:02.502Z,33
2019-03-31T01:35:01.677Z,33
2019-03-31T01:36:01.972Z,34
2019-03-31T01:37:02.159Z,32
2019-03-31T01:38:02.412Z,34
2019-03-31T01:39:02.540Z,34
2019-03-31T01:40:01.810Z,33
2019-03-31T01:41:02.079Z,31
2019-03-31T01:42:02.277Z,32
2019-03-31T01:43:02.549Z,31
2019-03-31T01:44:01.761Z,32
2019-03-31T01:45:01.984Z,34
2019-03-31T01:46:02.176Z,31
2019-03-31T01:47:02.354Z,31
2019-03-31T01:48:01.792Z,32
2019-03-31T01:49:01.798Z,31
2019-03-31T01:50:02.037Z,36
2019-03-31T01:51:02.267Z,36
2019-03-31T01:52:02.500Z,32
2019-03-31T01:53:01.722Z,29
2019-03-31T01:54:01.827Z,33
2019-03-31T01:55:02.215Z,32
2019-03-31T01:56:02.446Z,31
2019-03-31T01:57:01.670Z,35
2019-03-31T01:58:01.999Z,32
2019-03-31T01:59:02.078Z,29
2019-03-31T02:00:04.165Z,34
2019-03-31T02:01:02.038Z,33
2019-03-31T02:02:05.006Z,32
2019-03-31T02:03:02.541Z,31
2019-03-31T02:04:01.809Z,32
2019-03-31T02:05:02.004Z,30
2019-03-31T02:06:02.137Z,32
2019-03-31T02:07:02.386Z,30
2019-03-31T02:08:02.608Z,30
2019-03-31T02:09:01.807Z,31
2019-03-31T02:10:02.130Z,30
2019-03-31T02:11:02.323Z,31
2019-03-31T02:12:02.463Z,27
2019-03-31T02:13:01.750Z,31
2019-03-31T02:14:01.973Z,33
2019-03-31T02:15:02.172Z,27
2019-03-31T02:16:02.391Z,30
2019-03-31T02:17:02.567Z,31
2019-03-31T02:18:01.798Z,28
2019-03-31T02:19:01.700Z,30
2019-03-31T02:20:02.544Z,30
2019-03-31T02:21:01.666Z,31
2019-03-31T02:22:01.895Z,33
2019-03-31T02:23:02.212Z,28
2019-03-31T02:24:02.386Z,27
2019-03-31T02:25:01.659Z,29
2019-03-31T02:26:01.819Z,29
2019-03-31T02:27:02.126Z,28
2019-03-31T02:28:02.366Z,32
2019-03-31T02:29:02.529Z,32
2019-03-31T02:30:02.160Z,32
2019-03-31T02:31:02.020Z,28
2019-03-31T02:32:02.185Z,30
2019-03-31T02:33:02.591Z,25
2019-03-31T02:34:02.626Z,28
2019-03-31T02:35:02.002Z,30
2019-03-31T02:36:02.108Z,29
2019-03-31T02:37:02.279Z,28
2019-03-31T02:38:02.488Z,31
2019-03-31T02:39:01.652Z,27
2019-03-31T02:40:01.957Z,28
2019-03-31T02:41:02.105Z,24
2019-03-31T02:42:02.345Z,31
2019-03-31T02:43:02.538Z,27
2019-03-31T02:44:01.693Z,31
2019-03-31T02:45:02.002Z,32
2019-03-31T02:46:02.202Z,28
2019-03-31T02:47:02.362Z,30
2019-03-31T02:48:02.612Z,24
2019-03-31T02:49:01.882Z,29
2019-03-31T02:50:02.175Z,23
2019-03-31T02:51:02.353Z,26
2019-03-31T02:52:02.446Z,24
2019-03-31T02:53:01.658Z,29
2019-03-31T02:54:01.877Z,25
2019-03-31T02:55:02.318Z,24
2019-03-31T02:56:02.408Z,23
2019-03-31T02:57:02.622Z,24
2019-03-31T02:58:01.875Z,24
2019-03-31T02:59:02.122Z,25
2019-03-31T03:00:02.319Z,26
2019-03-31T03:01:02.058Z,27
2019-03-31T03:02:02.207Z,25
2019-03-31T03:03:02.460Z,28
2019-03-31T03:04:01.820Z,23
2019-03-31T03:05:20.538Z,24
2019-03-31T03:06:02.227Z,27
2019-03-31T03:07:02.320Z,21
2019-03-31T03:08:02.302Z,22
2019-03-31T03:09:02.624Z,24
2019-03-31T03:10:01.918Z,22
2019-03-31T03:11:01.946Z,24
2019-03-31T03:12:02.271Z,24
2019-03-31T03:13:02.542Z,25
2019-03-31T03:14:01.699Z,23
2019-03-31T03:15:01.949Z,23
2019-03-31T03:16:02.176Z,21
2019-03-31T03:17:02.510Z,24
2019-03-31T03:18:01.667Z,23
2019-03-31T03:19:01.914Z,24
2019-03-31T03:20:02.143Z,22
2019-03-31T03:21:02.424Z,22
2019-03-31T03:22:02.637Z,25
2019-03-31T03:23:01.813Z,23
2019-03-31T03:24:02.053Z,20
2019-03-31T03:25:02.382Z,23
2019-03-31T03:26:02.435Z,26
2019-03-31T03:27:01.908Z,23
2019-03-31T03:28:01.918Z,20
2019-03-31T03:29:02.367Z,23
2019-03-31T03:30:02.551Z,22
2019-03-31T03:31:02.008Z,23
2019-03-31T03:32:01.910Z,23
2019-03-31T03:33:18.045Z,22
2019-03-31T03:34:02.418Z,23
2019-03-31T03:35:02.525Z,22
2019-03-31T03:36:01.671Z,18
2019-03-31T03:37:01.954Z,23
2019-03-31T03:38:02.063Z,22
2019-03-31T03:39:02.286Z,20
2019-03-31T03:40:02.547Z,21
2019-03-31T03:41:01.772Z,22
2019-03-31T03:42:01.969Z,22
2019-03-31T03:43:02.162Z,20
2019-03-31T03:44:03.248Z,21
2019-03-31T03:45:02.655Z,17
2019-03-31T03:46:01.888Z,18
2019-03-31T03:47:02.200Z,17
2019-03-31T03:48:02.581Z,21
2019-03-31T03:49:02.735Z,17
2019-03-31T03:50:02.012Z,21
2019-03-31T03:51:02.118Z,19
2019-03-31T03:52:02.381Z,18
2019-03-31T03:53:02.634Z,19
2019-03-31T03:54:01.785Z,20
2019-03-31T03:55:02.203Z,21
2019-03-31T03:56:02.268Z,19
2019-03-31T03:57:02.487Z,19
2019-03-31T03:58:01.732Z,23
2019-03-31T03:59:01.935Z,20
2019-03-31T04:00:05.262Z,19
2019-03-31T04:01:02.059Z,23
2019-03-31T04:02:02.324Z,19
2019-03-31T04:03:02.546Z,17
2019-03-31T04:04:01.800Z,19
2019-03-31T04:05:02.138Z,20
2019-03-31T04:06:02.272Z,20
2019-03-31T04:07:02.482Z,14
2019-03-31T04:08:01.631Z,20
2019-03-31T04:09:01.923Z,17
2019-03-31T04:10:02.179Z,19
2019-03-31T04:11:02.387Z,18
2019-03-31T04:12:02.669Z,19
2019-03-31T04:13:01.854Z,18
2019-03-31T04:14:02.190Z,19
2019-03-31T04:15:02.296Z,20
2019-03-31T04:16:02.531Z,16
2019-03-31T04:17:01.796Z,19
2019-03-31T04:18:02.052Z,18
2019-03-31T04:19:02.357Z,18
2019-03-31T04:20:02.239Z,19
2019-03-31T04:21:02.483Z,18
2019-03-31T04:22:01.695Z,15
2019-03-31T04:23:02.000Z,18
2019-03-31T04:24:02.153Z,18
2019-03-31T04:25:02.552Z,18
2019-03-31T04:26:01.716Z,16
2019-03-31T04:27:02.119Z,18
2019-03-31T04:28:02.218Z,17
2019-03-31T04:29:02.020Z,17
2019-03-31T04:30:02.315Z,19
2019-03-31T04:31:02.582Z,18
2019-03-31T04:32:01.799Z,18
2019-03-31T04:33:01.945Z,20
2019-03-31T04:34:02.151Z,16
2019-03-31T04:35:02.500Z,16
2019-03-31T04:36:02.597Z,16
2019-03-31T04:37:01.827Z,15
2019-03-31T04:38:02.055Z,16
2019-03-31T04:39:02.349Z,19
2019-03-31T04:40:02.592Z,16
2019-03-31T04:41:01.755Z,16
2019-03-31T04:42:01.952Z,16
2019-03-31T04:43:02.203Z,16
2019-03-31T04:44:02.479Z,16
2019-03-31T04:45:02.640Z,15
2019-03-31T04:46:01.894Z,16
2019-03-31T04:47:02.093Z,16
2019-03-31T04:48:02.322Z,19
2019-03-31T04:49:02.617Z,14
2019-03-31T04:50:01.816Z,16
2019-03-31T04:51:02.080Z,15
2019-03-31T04:52:02.250Z,15
2019-03-31T04:53:02.439Z,16
2019-03-31T04:54:01.732Z,18
2019-03-31T04:55:01.890Z,16
2019-03-31T04:56:02.090Z,17
2019-03-31T04:57:05.019Z,16
2019-03-31T04:58:02.549Z,15
2019-03-31T04:59:01.837Z,17
2019-03-31T05:00:05.227Z,15
2019-03-31T05:01:02.043Z,16
2019-03-31T05:02:02.194Z,14
2019-03-31T05:03:02.435Z,16
2019-03-31T05:04:05.700Z,12
2019-03-31T05:05:01.950Z,17
2019-03-31T05:06:02.180Z,14
2019-03-31T05:07:02.337Z,14
2019-03-31T05:08:01.617Z,16
2019-03-31T05:09:01.919Z,16
2019-03-31T05:10:02.136Z,13
2019-03-31T05:11:02.318Z,15
2019-03-31T05:12:02.589Z,15
2019-03-31T05:13:02.002Z,15
2019-03-31T05:14:02.060Z,15
2019-03-31T05:15:02.587Z,17
2019-03-31T05:16:02.579Z,13
2019-03-31T05:17:01.795Z,15
2019-03-31T05:18:02.096Z,17
2019-03-31T05:19:02.300Z,14
2019-03-31T05:20:02.584Z,15
2019-03-31T05:21:01.780Z,15
2019-03-31T05:22:01.975Z,14
2019-03-31T05:23:02.164Z,15
2019-03-31T05:24:02.396Z,16
2019-03-31T05:25:02.655Z,14
2019-03-31T05:26:01.841Z,12
2019-03-31T05:27:02.084Z,16
2019-03-31T05:28:02.298Z,12
2019-03-31T05:29:02.454Z,14
2019-03-31T05:30:02.271Z,16
2019-03-31T05:31:02.582Z,17
2019-03-31T05:32:01.799Z,16
2019-03-31T05:33:02.018Z,15
2019-03-31T05:34:02.260Z,13
2019-03-31T05:35:02.567Z,13
2019-03-31T05:36:01.759Z,13
2019-03-31T05:37:01.949Z,14
2019-03-31T05:38:02.167Z,15
2019-03-31T05:39:02.365Z,13
2019-03-31T05:40:01.808Z,13
2019-03-31T05:41:02.023Z,13
2019-03-31T05:42:02.123Z,14
2019-03-31T05:43:02.443Z,15
2019-03-31T05:44:06.383Z,14
2019-03-31T05:45:01.884Z,14
2019-03-31T05:46:02.200Z,15
2019-03-31T05:47:02.305Z,14
2019-03-31T05:48:02.553Z,12
2019-03-31T05:49:01.848Z,10
2019-03-31T05:50:02.144Z,12
2019-03-31T05:51:02.280Z,14
2019-03-31T05:52:02.497Z,15
2019-03-31T05:53:01.652Z,16
2019-03-31T05:54:01.898Z,14
2019-03-31T05:55:02.164Z,13
2019-03-31T05:56:02.341Z,12
2019-03-31T05:57:02.533Z,15
2019-03-31T05:58:01.744Z,13
2019-03-31T05:59:01.915Z,13
2019-03-31T06:00:05.023Z,11
2019-03-31T06:01:01.850Z,12
2019-03-31T06:02:01.984Z,13
2019-03-31T06:03:02.213Z,14
2019-03-31T06:04:02.421Z,14
2019-03-31T06:05:01.667Z,11
2019-03-31T06:06:01.974Z,12
2019-03-31T06:07:02.130Z,13
2019-03-31T06:08:02.291Z,14
2019-03-31T06:09:02.531Z,14
2019-03-31T06:10:01.747Z,14
2019-03-31T06:11:02.039Z,16
2019-03-31T06:12:02.205Z,14
2019-03-31T06:13:02.446Z,13
2019-03-31T06:14:01.715Z,13
2019-03-31T06:15:02.087Z,13
2019-03-31T06:16:02.119Z,12
2019-03-31T06:17:02.158Z,10
2019-03-31T06:18:02.277Z,12
2019-03-31T06:19:02.533Z,15
2019-03-31T06:20:01.728Z,15
2019-03-31T06:21:01.918Z,13
2019-03-31T06:22:02.305Z,13
2019-03-31T06:23:02.427Z,16
2019-03-31T06:24:01.603Z,16
2019-03-31T06:25:02.191Z,11
2019-03-31T06:26:02.085Z,13
2019-03-31T06:27:02.431Z,14
2019-03-31T06:28:02.536Z,13
2019-03-31T06:29:01.673Z,11
2019-03-31T06:30:01.908Z,11
2019-03-31T06:31:01.880Z,15
2019-03-31T06:32:02.162Z,13
2019-03-31T06:33:02.331Z,14
2019-03-31T06:34:02.522Z,12
2019-03-31T06:35:01.773Z,13
2019-03-31T06:36:02.036Z,11
2019-03-31T06:37:02.308Z,12
2019-03-31T06:38:02.432Z,14
2019-03-31T06:39:01.745Z,12
2019-03-31T06:40:01.901Z,10
2019-03-31T06:41:02.150Z,15
2019-03-31T06:42:02.398Z,13
2019-03-31T06:43:02.468Z,13
2019-03-31T06:44:01.680Z,14
2019-03-31T06:45:02.506Z,10
2019-03-31T06:46:01.667Z,15
2019-03-31T06:47:01.879Z,16
2019-03-31T06:48:02.052Z,16
2019-03-31T06:49:02.299Z,13
2019-03-31T06:50:02.694Z,14
2019-03-31T06:51:01.788Z,13
2019-03-31T06:52:02.021Z,15
2019-03-31T06:53:02.175Z,15
2019-03-31T06:54:02.447Z,14
2019-03-31T06:55:02.656Z,16
2019-03-31T06:56:01.742Z,14
2019-03-31T06:57:02.035Z,14
2019-03-31T06:58:02.177Z,12
2019-03-31T06:59:02.403Z,13
2019-03-31T07:00:03.844Z,17
2019-03-31T07:01:02.599Z,17
2019-03-31T07:02:03.812Z,15
2019-03-31T07:03:02.047Z,14
2019-03-31T07:04:02.246Z,13
2019-03-31T07:05:02.583Z,11
2019-03-31T07:06:01.762Z,12
2019-03-31T07:07:01.975Z,9
2019-03-31T07:08:02.242Z,10
2019-03-31T07:09:02.426Z,12
2019-03-31T07:10:02.094Z,12
2019-03-31T07:11:02.089Z,12
2019-03-31T07:12:02.256Z,12
2019-03-31T07:13:02.475Z,11
2019-03-31T07:14:01.692Z,10
2019-03-31T07:15:01.925Z,10
2019-03-31T07:16:02.153Z,10
2019-03-31T07:17:02.348Z,10
2019-03-31T07:18:02.100Z,11
2019-03-31T07:19:02.152Z,10
2019-03-31T07:20:02.430Z,12
2019-03-31T07:21:01.672Z,9
2019-03-31T07:22:01.875Z,8
2019-03-31T07:23:02.036Z,10
2019-03-31T07:24:02.209Z,9
2019-03-31T07:25:02.478Z,10
2019-03-31T07:26:01.637Z,10
2019-03-31T07:27:02.228Z,10
2019-03-31T07:28:02.352Z,12
2019-03-31T07:29:02.561Z,11
2019-03-31T07:30:01.797Z,11
2019-03-31T07:31:02.003Z,9
2019-03-31T07:32:02.262Z,10
2019-03-31T07:33:02.211Z,13
2019-03-31T07:34:02.446Z,9
2019-03-31T07:35:01.708Z,10
2019-03-31T07:36:01.868Z,9
2019-03-31T07:37:02.144Z,10
2019-03-31T07:38:02.305Z,9
2019-03-31T07:39:03.129Z,9
2019-03-31T07:40:02.350Z,11
2019-03-31T07:41:13.692Z,9
2019-03-31T07:42:03.085Z,10
2019-03-31T07:43:02.501Z,10
2019-03-31T07:44:01.607Z,10
2019-03-31T07:45:01.986Z,8
2019-03-31T07:46:02.135Z,9
2019-03-31T07:47:02.398Z,10
2019-03-31T07:48:01.684Z,10
2019-03-31T07:49:01.843Z,11
2019-03-31T07:50:02.222Z,9
2019-03-31T07:51:02.294Z,11
2019-03-31T07:52:02.443Z,11
2019-03-31T07:53:01.713Z,10
2019-03-31T07:54:01.930Z,8
2019-03-31T07:55:02.282Z,11
2019-03-31T07:56:02.445Z,10
2019-03-31T07:57:01.688Z,12
2019-03-31T07:58:01.856Z,8
2019-03-31T07:59:02.150Z,9
2019-03-31T08:00:03.911Z,10
2019-03-31T08:01:01.620Z,8
2019-03-31T08:02:02.191Z,9
2019-03-31T08:03:02.388Z,9
2019-03-31T08:04:01.597Z,9
2019-03-31T08:05:01.887Z,12
2019-03-31T08:06:01.858Z,10
2019-03-31T08:07:02.089Z,11
2019-03-31T08:08:02.179Z,9
2019-03-31T08:09:02.464Z,8
2019-03-31T08:10:02.668Z,9
2019-03-31T08:11:01.885Z,6
2019-03-31T08:12:02.037Z,8
2019-03-31T08:13:02.252Z,8
2019-03-31T08:14:02.418Z,9
2019-03-31T08:15:01.700Z,9
2019-03-31T08:16:02.469Z,8
2019-03-31T08:17:01.643Z,9
2019-03-31T08:18:01.893Z,9
2019-03-31T08:19:02.017Z,6
2019-03-31T08:20:02.268Z,8
2019-03-31T08:21:02.471Z,8
2019-03-31T08:22:02.475Z,9
2019-03-31T08:23:01.706Z,10
2019-03-31T08:24:02.029Z,8
2019-03-31T08:25:02.042Z,8
2019-03-31T08:26:02.212Z,8
2019-03-31T08:27:05.976Z,8
2019-03-31T08:28:01.717Z,7
2019-03-31T08:29:01.905Z,10
2019-03-31T08:30:02.164Z,8
2019-03-31T08:31:02.075Z,9
2019-03-31T08:32:02.374Z,9
2019-03-31T08:33:01.607Z,8
2019-03-31T08:34:01.806Z,8
2019-03-31T08:35:01.958Z,7
2019-03-31T08:36:02.282Z,8
2019-03-31T08:37:02.381Z,7
2019-03-31T08:38:01.586Z,8
2019-03-31T08:39:01.873Z,6
2019-03-31T08:40:02.143Z,6
2019-03-31T08:41:02.352Z,7
2019-03-31T08:42:02.531Z,8
2019-03-31T08:43:01.764Z,10
2019-03-31T08:44:01.983Z,6
2019-03-31T08:45:02.311Z,9
2019-03-31T08:46:02.470Z,7
2019-03-31T08:47:02.560Z,8
2019-03-31T08:48:01.758Z,8
2019-03-31T08:49:02.041Z,6
2019-03-31T08:50:03.060Z,8
2019-03-31T08:51:02.354Z,7
2019-03-31T08:52:02.478Z,8
2019-03-31T08:53:01.691Z,7
2019-03-31T08:54:01.987Z,9
2019-03-31T08:55:02.249Z,9
2019-03-31T08:56:02.467Z,8
2019-03-31T08:57:01.663Z,5
2019-03-31T08:58:01.894Z,6
2019-03-31T08:59:02.103Z,6
2019-03-31T09:00:07.991Z,7
2019-03-31T09:01:01.848Z,6
2019-03-31T09:02:03.793Z,7
2019-03-31T09:03:02.126Z,6
2019-03-31T09:04:02.391Z,6
2019-03-31T09:05:02.672Z,8
2019-03-31T09:06:03.039Z,8
2019-03-31T09:07:02.098Z,7
2019-03-31T09:08:02.485Z,6
2019-03-31T09:09:01.650Z,7
2019-03-31T09:10:01.862Z,8
2019-03-31T09:11:02.160Z,7
2019-03-31T09:12:02.283Z,7
2019-03-31T09:13:02.555Z,5
2019-03-31T09:14:01.786Z,8
2019-03-31T09:15:02.084Z,6
2019-03-31T09:16:02.307Z,5
2019-03-31T09:17:02.530Z,7
2019-03-31T09:18:01.690Z,9
2019-03-31T09:19:01.877Z,8
2019-03-31T09:20:02.155Z,6
2019-03-31T09:21:02.375Z,7
2019-03-31T09:22:02.552Z,6
2019-03-31T09:23:01.742Z,6
2019-03-31T09:24:01.929Z,8
2019-03-31T09:25:02.214Z,7
2019-03-31T09:26:02.458Z,5
2019-03-31T09:27:02.589Z,7
2019-03-31T09:28:01.836Z,5
2019-03-31T09:29:01.991Z,7
2019-03-31T09:30:02.281Z,5
2019-03-31T09:31:02.486Z,7
2019-03-31T09:32:01.741Z,6
2019-03-31T09:33:01.869Z,6
2019-03-31T09:34:02.110Z,6
2019-03-31T09:35:02.281Z,6
2019-03-31T09:36:17.080Z,7
2019-03-31T09:37:01.578Z,6
2019-03-31T09:38:01.806Z,5
2019-03-31T09:39:02.016Z,5
2019-03-31T09:40:02.275Z,5
2019-03-31T09:41:02.442Z,4
2019-03-31T09:42:01.721Z,7
2019-03-31T09:43:01.937Z,5
2019-03-31T09:44:02.295Z,5
2019-03-31T09:45:02.565Z,4
2019-03-31T09:46:01.764Z,5
2019-03-31T09:47:02.026Z,4
2019-03-31T09:48:02.237Z,8
2019-03-31T09:49:02.461Z,4
2019-03-31T09:50:01.776Z,5
2019-03-31T09:51:01.949Z,4
2019-03-31T09:52:02.103Z,4
2019-03-31T09:53:02.051Z,7
2019-03-31T09:54:02.217Z,4
2019-03-31T09:55:02.593Z,4
2019-03-31T09:56:01.829Z,5
2019-03-31T09:57:02.018Z,4
2019-03-31T09:58:02.247Z,5
2019-03-31T09:59:02.330Z,5
2019-03-31T10:00:04.223Z,8
2019-03-31T10:01:01.997Z,4
2019-03-31T10:02:02.156Z,6
2019-03-31T10:03:02.390Z,4
2019-03-31T10:04:01.601Z,8
2019-03-31T10:05:01.851Z,5
2019-03-31T10:06:11.478Z,6
2019-03-31T10:07:02.233Z,3
2019-03-31T10:08:02.388Z,5
2019-03-31T10:09:01.608Z,7
2019-03-31T10:10:01.935Z,5
2019-03-31T10:11:03.448Z,6
2019-03-31T10:12:02.235Z,5
2019-03-31T10:13:02.510Z,6
2019-03-31T10:14:01.772Z,7
2019-03-31T10:15:01.962Z,9
2019-03-31T10:16:02.152Z,11
2019-03-31T10:17:02.384Z,8
2019-03-31T10:18:02.620Z,13
2019-03-31T10:19:01.787Z,9
2019-03-31T10:20:02.057Z,11
2019-03-31T10:21:02.134Z,12
2019-03-31T10:22:02.313Z,16
2019-03-31T10:23:02.630Z,15
2019-03-31T10:24:01.764Z,10
2019-03-31T10:25:01.963Z,8
2019-03-31T10:26:02.100Z,9
2019-03-31T10:27:02.329Z,9
2019-03-31T10:28:02.531Z,13
2019-03-31T10:29:01.744Z,11
2019-03-31T10:30:02.045Z,7
2019-03-31T10:31:02.095Z,7
2019-03-31T10:32:02.331Z,7
2019-03-31T10:33:02.383Z,6
2019-03-31T10:34:01.608Z,4
2019-03-31T10:35:02.039Z,5
2019-03-31T10:36:02.076Z,4
2019-03-31T10:37:02.318Z,5
2019-03-31T10:38:02.428Z,6
2019-03-31T10:39:01.639Z,4
2019-03-31T10:40:01.856Z,6
2019-03-31T10:41:01.995Z,6
2019-03-31T10:42:02.220Z,6
2019-03-31T10:43:02.362Z,5
2019-03-31T10:44:02.556Z,5
2019-03-31T10:45:01.830Z,6
2019-03-31T10:46:02.015Z,6
2019-03-31T10:47:02.280Z,6
2019-03-31T10:48:02.398Z,6
2019-03-31T10:49:01.667Z,5
2019-03-31T10:50:01.847Z,4
2019-03-31T10:51:02.038Z,6
2019-03-31T10:52:02.264Z,4
2019-03-31T10:53:02.410Z,7
2019-03-31T10:54:05.022Z,6
2019-03-31T10:55:02.460Z,5
2019-03-31T10:56:01.646Z,4
2019-03-31T10:57:01.907Z,5
2019-03-31T10:58:02.088Z,7
2019-03-31T10:59:02.226Z,7
2019-03-31T11:00:04.484Z,5
2019-03-31T11:01:02.194Z,6
2019-03-31T11:02:02.467Z,9
2019-03-31T11:03:02.364Z,6
2019-03-31T11:04:02.595Z,7
2019-03-31T11:05:01.870Z,4
2019-03-31T11:06:02.058Z,7
2019-03-31T11:07:04.047Z,9
2019-03-31T11:08:02.503Z,5
2019-03-31T11:09:01.657Z,10
2019-03-31T11:10:02.080Z,8
2019-03-31T11:11:02.300Z,7
2019-03-31T11:12:02.399Z,4
2019-03-31T11:13:01.619Z,6
2019-03-31T11:14:01.850Z,7
2019-03-31T11:15:02.198Z,4
2019-03-31T11:16:02.397Z,7
2019-03-31T11:17:01.640Z,7
2019-03-31T11:18:01.872Z,6
2019-03-31T11:19:02.100Z,7
2019-03-31T11:20:02.450Z,5
2019-03-31T11:21:01.667Z,6
2019-03-31T11:22:01.911Z,8
2019-03-31T11:23:02.054Z,7
2019-03-31T11:24:02.260Z,4
2019-03-31T11:25:02.559Z,6
2019-03-31T11:26:01.675Z,6
2019-03-31T11:27:01.910Z,7
2019-03-31T11:28:02.169Z,6
2019-03-31T11:29:02.463Z,7
2019-03-31T11:30:02.598Z,4
2019-03-31T11:31:01.820Z,6
2019-03-31T11:32:01.998Z,6
2019-03-31T11:33:02.216Z,5
2019-03-31T11:34:02.522Z,5
2019-03-31T11:35:01.887Z,6
2019-03-31T11:36:01.898Z,7
2019-03-31T11:37:14.127Z,7
2019-03-31T11:38:02.375Z,7
2019-03-31T11:39:01.695Z,6
2019-03-31T11:40:02.009Z,7
2019-03-31T11:41:02.185Z,6
2019-03-31T11:42:02.396Z,6
2019-03-31T11:43:01.641Z,6
2019-03-31T11:44:01.880Z,7
2019-03-31T11:45:02.171Z,5
2019-03-31T11:46:02.287Z,6
2019-03-31T11:47:02.553Z,6
2019-03-31T11:48:01.710Z,4
2019-03-31T11:49:01.901Z,5
2019-03-31T11:50:01.982Z,5
2019-03-31T11:51:02.198Z,5
2019-03-31T11:52:02.464Z,6
2019-03-31T11:53:01.650Z,7
2019-03-31T11:54:01.812Z,6
2019-03-31T11:55:02.114Z,5
2019-03-31T11:56:02.170Z,7
2019-03-31T11:57:02.346Z,7
2019-03-31T11:58:02.159Z,6
2019-03-31T11:59:02.373Z,9
2019-03-31T12:00:03.546Z,6
2019-03-31T12:01:02.345Z,7
2019-03-31T12:02:02.603Z,6
2019-03-31T12:03:01.868Z,5
2019-03-31T12:04:02.094Z,5
2019-03-31T12:05:02.397Z,8
2019-03-31T12:06:01.615Z,8
2019-03-31T12:07:01.820Z,10
2019-03-31T12:08:02.346Z,9
2019-03-31T12:09:02.530Z,7
2019-03-31T12:10:01.816Z,8
2019-03-31T12:11:01.977Z,7
2019-03-31T12:12:02.185Z,7
2019-03-31T12:13:02.346Z,8
2019-03-31T12:14:02.633Z,6
2019-03-31T12:15:01.913Z,8
2019-03-31T12:16:02.162Z,7
2019-03-31T12:17:02.290Z,7
2019-03-31T12:18:02.585Z,5
2019-03-31T12:19:01.791Z,9
2019-03-31T12:20:01.954Z,9
2019-03-31T12:21:02.157Z,10
2019-03-31T12:22:02.283Z,10
2019-03-31T12:23:02.466Z,9
2019-03-31T12:24:01.737Z,8
2019-03-31T12:25:01.924Z,8
2019-03-31T12:26:02.109Z,7
2019-03-31T12:27:02.279Z,9
2019-03-31T12:28:02.521Z,8
2019-03-31T12:29:01.695Z,10
2019-03-31T12:30:02.624Z,8
2019-03-31T12:31:01.833Z,17
2019-03-31T12:32:02.089Z,21
2019-03-31T12:33:02.197Z,15
2019-03-31T12:34:02.388Z,13
2019-03-31T12:35:01.721Z,18
2019-03-31T12:36:01.906Z,20
2019-03-31T12:37:02.127Z,13
2019-03-31T12:38:02.310Z,13
2019-03-31T12:39:02.591Z,19
2019-03-31T12:40:01.780Z,12
2019-03-31T12:41:01.941Z,21
2019-03-31T12:42:02.256Z,19
2019-03-31T12:43:02.563Z,17
2019-03-31T12:44:01.745Z,15
2019-03-31T12:45:02.597Z,10
2019-03-31T12:46:01.707Z,6
2019-03-31T12:47:02.019Z,9
2019-03-31T12:48:02.099Z,10
2019-03-31T12:49:02.277Z,12
2019-03-31T12:50:02.582Z,19
2019-03-31T12:51:02.038Z,13
2019-03-31T12:52:02.344Z,14
2019-03-31T12:53:02.501Z,12
2019-03-31T12:54:01.700Z,14
2019-03-31T12:55:01.882Z,15
2019-03-31T12:56:02.088Z,17
2019-03-31T12:57:02.555Z,17
2019-03-31T12:58:02.616Z,15
2019-03-31T12:59:01.721Z,15
2019-03-31T13:00:04.587Z,15
2019-03-31T13:01:02.309Z,16
2019-03-31T13:02:01.757Z,15
2019-03-31T13:03:01.981Z,13
2019-03-31T13:04:02.114Z,15
2019-03-31T13:05:02.409Z,16
2019-03-31T13:06:02.569Z,13
2019-03-31T13:07:01.704Z,12
2019-03-31T13:08:02.067Z,13
2019-03-31T13:09:02.240Z,15
2019-03-31T13:10:02.483Z,13
2019-03-31T13:11:01.740Z,15
2019-03-31T13:12:01.887Z,17
2019-03-31T13:13:02.168Z,14
2019-03-31T13:14:02.383Z,15
2019-03-31T13:15:02.322Z,12
2019-03-31T13:16:02.023Z,14
2019-03-31T13:17:02.310Z,14
2019-03-31T13:18:02.499Z,12
2019-03-31T13:19:01.647Z,16
2019-03-31T13:20:02.686Z,13
2019-03-31T13:21:02.027Z,10
2019-03-31T13:22:02.119Z,16
2019-03-31T13:23:02.384Z,12
2019-03-31T13:24:02.533Z,13
2019-03-31T13:25:03.196Z,14
2019-03-31T13:26:01.666Z,11
2019-03-31T13:27:01.864Z,9
2019-03-31T13:28:05.375Z,11
2019-03-31T13:29:02.360Z,9
2019-03-31T13:30:02.640Z,8
2019-03-31T13:31:01.832Z,12
2019-03-31T13:32:02.140Z,10
2019-03-31T13:33:02.368Z,9
2019-03-31T13:34:02.502Z,12
2019-03-31T13:35:01.886Z,8
2019-03-31T13:36:01.999Z,8
2019-03-31T13:37:02.035Z,8
2019-03-31T13:38:11.971Z,7
2019-03-31T13:39:02.585Z,8
2019-03-31T13:40:01.952Z,7
2019-03-31T13:41:02.078Z,8
2019-03-31T13:42:02.365Z,12
2019-03-31T13:43:02.546Z,8
2019-03-31T13:44:01.820Z,8
2019-03-31T13:45:02.232Z,9
2019-03-31T13:46:02.184Z,6
2019-03-31T13:47:02.485Z,7
2019-03-31T13:48:01.689Z,9
2019-03-31T13:49:01.909Z,7
2019-03-31T13:50:02.510Z,6
2019-03-31T13:51:02.236Z,7
2019-03-31T13:52:02.429Z,9
2019-03-31T13:53:01.634Z,9
2019-03-31T13:54:01.815Z,6
2019-03-31T13:55:02.100Z,8
2019-03-31T13:56:02.255Z,4
2019-03-31T13:57:03.617Z,9
2019-03-31T13:58:05.001Z,6
2019-03-31T13:59:01.985Z,7
2019-03-31T14:00:04.818Z,5
2019-03-31T14:01:02.653Z,5
2019-03-31T14:02:01.713Z,6
2019-03-31T14:03:01.928Z,4
2019-03-31T14:04:04.166Z,5
2019-03-31T14:05:02.408Z,6
2019-03-31T14:06:01.706Z,5
2019-03-31T14:07:04.853Z,3
2019-03-31T14:08:02.233Z,4
2019-03-31T14:09:02.396Z,4
2019-03-31T14:10:02.585Z,5
2019-03-31T14:11:01.812Z,4
2019-03-31T14:12:01.887Z,4
2019-03-31T14:13:02.107Z,2
2019-03-31T14:14:02.319Z,7
2019-03-31T14:15:01.795Z,5
2019-03-31T14:16:01.893Z,4
2019-03-31T14:17:02.174Z,4
2019-03-31T14:18:02.373Z,4
2019-03-31T14:19:02.562Z,6
2019-03-31T14:20:02.716Z,3
2019-03-31T14:21:02.265Z,5
2019-03-31T14:22:02.452Z,4
2019-03-31T14:23:02.391Z,4
2019-03-31T14:24:02.634Z,3
2019-03-31T14:25:01.824Z,4
2019-03-31T14:26:02.066Z,6
2019-03-31T14:27:02.300Z,3